sensor_id;sensor_type;location;lat;lon;timestamp;P1;durP1;ratioP1;P2;durP2;ratioP2
73919;SDS011;62266;53.348;-1.496;2023-02-28T00:01:53;9.95;;;6.43;;
73919;SDS011;62266;53.348;-1.496;2023-02-28T00:04:24;9.95;;;6.13;;
73919;SDS011;62266;53.348;-1.496;2023-02-28T00:06:55;11.93;;;6.70;;
73919;SDS011;62266;53.348;-1.496;2023-02-28T00:09:25;10.63;;;5.88;;
73919;SDS011;62266;53.348;-1.496;2023-02-28T00:12:03;11.77;;;5.80;;
73919;SDS011;62266;53.348;-1.496;2023-02-28T00:14:38;9.00;;;5.50;;
73919;SDS011;62266;53.348;-1.496;2023-02-28T00:17:06;11.38;;;5.90;;
73919;SDS011;62266;53.348;-1.496;2023-02-28T00:19:32;9.50;;;5.50;;
73919;SDS011;62266;53.348;-1.496;2023-02-28T00:21:59;8.75;;;5.10;;
73919;SDS011;62266;53.348;-1.496;2023-02-28T00:24:28;9.93;;;5.07;;
73919;SDS011;62266;53.348;-1.496;2023-02-28T00:26:56;7.30;;;4.10;;
73919;SDS011;62266;53.348;-1.496;2023-02-28T00:29:24;7.10;;;3.83;;
73919;SDS011;62266;53.348;-1.496;2023-02-28T00:31:54;7.28;;;4.05;;
73919;SDS011;62266;53.348;-1.496;2023-02-28T00:34:20;5.07;;;3.37;;
73919;SDS011;62266;53.348;-1.496;2023-02-28T00:36:49;5.75;;;3.33;;
73919;SDS011;62266;53.348;-1.496;2023-02-28T00:39:21;9.23;;;4.72;;
73919;SDS011;62266;53.348;-1.496;2023-02-28T00:41:50;8.88;;;4.55;;
73919;SDS011;62266;53.348;-1.496;2023-02-28T00:44:16;10.38;;;5.03;;
73919;SDS011;62266;53.348;-1.496;2023-02-28T00:46:42;9.33;;;5.53;;
73919;SDS011;62266;53.348;-1.496;2023-02-28T00:49:11;11.35;;;5.75;;
73919;SDS011;62266;53.348;-1.496;2023-02-28T00:51:37;12.00;;;6.82;;
73919;SDS011;62266;53.348;-1.496;2023-02-28T00:54:03;12.13;;;6.70;;
73919;SDS011;62266;53.348;-1.496;2023-02-28T00:56:29;14.13;;;7.43;;
73919;SDS011;62266;53.348;-1.496;2023-02-28T00:58:54;12.25;;;6.35;;
73919;SDS011;62266;53.348;-1.496;2023-02-28T01:03:52;13.17;;;7.07;;
73919;SDS011;62266;53.348;-1.496;2023-02-28T01:06:18;13.60;;;6.95;;
73919;SDS011;62266;53.348;-1.496;2023-02-28T01:08:43;13.03;;;7.73;;
73919;SDS011;62266;53.348;-1.496;2023-02-28T01:11:09;14.20;;;7.17;;
73919;SDS011;62266;53.348;-1.496;2023-02-28T01:13:36;11.65;;;6.95;;
73919;SDS011;62266;53.348;-1.496;2023-02-28T01:16:01;12.55;;;7.70;;
73919;SDS011;62266;53.348;-1.496;2023-02-28T01:18:27;16.60;;;8.93;;
73919;SDS011;62266;53.348;-1.496;2023-02-28T01:20:53;15.88;;;8.02;;
73919;SDS011;62266;53.348;-1.496;2023-02-28T01:23:20;12.52;;;7.03;;
73919;SDS011;62266;53.348;-1.496;2023-02-28T01:25:48;12.00;;;6.67;;
73919;SDS011;62266;53.348;-1.496;2023-02-28T01:28:14;13.88;;;7.35;;
73919;SDS011;62266;53.348;-1.496;2023-02-28T01:30:40;11.23;;;6.00;;
73919;SDS011;62266;53.348;-1.496;2023-02-28T01:33:05;11.00;;;6.15;;
73919;SDS011;62266;53.348;-1.496;2023-02-28T01:35:34;12.03;;;7.23;;
73919;SDS011;62266;53.348;-1.496;2023-02-28T01:38:00;11.18;;;5.82;;
73919;SDS011;62266;53.348;-1.496;2023-02-28T01:40:26;9.40;;;5.80;;
73919;SDS011;62266;53.348;-1.496;2023-02-28T01:42:52;9.37;;;5.87;;
73919;SDS011;62266;53.348;-1.496;2023-02-28T01:47:57;10.13;;;6.00;;
73919;SDS011;62266;53.348;-1.496;2023-02-28T01:50:26;11.65;;;6.40;;
73919;SDS011;62266;53.348;-1.496;2023-02-28T01:52:54;8.75;;;5.85;;
73919;SDS011;62266;53.348;-1.496;2023-02-28T01:55:21;7.93;;;5.28;;
73919;SDS011;62266;53.348;-1.496;2023-02-28T01:57:51;9.17;;;5.50;;
73919;SDS011;62266;53.348;-1.496;2023-02-28T02:00:18;9.13;;;5.28;;
73919;SDS011;62266;53.348;-1.496;2023-02-28T02:02:46;7.30;;;4.65;;
73919;SDS011;62266;53.348;-1.496;2023-02-28T02:05:18;6.63;;;4.65;;
73919;SDS011;62266;53.348;-1.496;2023-02-28T02:07:45;7.22;;;4.28;;
73919;SDS011;62266;53.348;-1.496;2023-02-28T02:16:23;8.25;;;5.78;;
73919;SDS011;62266;53.348;-1.496;2023-02-28T02:18:57;8.60;;;5.47;;
73919;SDS011;62266;53.348;-1.496;2023-02-28T02:34:59;7.72;;;5.20;;
73919;SDS011;62266;53.348;-1.496;2023-02-28T02:40:15;8.63;;;4.70;;
73919;SDS011;62266;53.348;-1.496;2023-02-28T02:42:56;9.27;;;4.30;;
73919;SDS011;62266;53.348;-1.496;2023-02-28T02:45:31;7.23;;;4.60;;
73919;SDS011;62266;53.348;-1.496;2023-02-28T02:48:03;7.72;;;4.75;;
73919;SDS011;62266;53.348;-1.496;2023-02-28T02:50:33;6.95;;;4.15;;
73919;SDS011;62266;53.348;-1.496;2023-02-28T02:53:01;8.55;;;4.90;;
73919;SDS011;62266;53.348;-1.496;2023-02-28T02:55:29;9.98;;;4.85;;
73919;SDS011;62266;53.348;-1.496;2023-02-28T02:58:01;10.93;;;5.00;;
73919;SDS011;62266;53.348;-1.496;2023-02-28T03:00:31;9.40;;;5.28;;
73919;SDS011;62266;53.348;-1.496;2023-02-28T03:02:59;11.63;;;6.03;;
73919;SDS011;62266;53.348;-1.496;2023-02-28T03:05:27;13.48;;;6.65;;
73919;SDS011;62266;53.348;-1.496;2023-02-28T03:07:59;11.32;;;5.80;;
73919;SDS011;62266;53.348;-1.496;2023-02-28T03:13:16;12.63;;;6.22;;
73919;SDS011;62266;53.348;-1.496;2023-02-28T03:21:06;10.50;;;5.28;;
73919;SDS011;62266;53.348;-1.496;2023-02-28T03:23:45;9.90;;;5.90;;
73919;SDS011;62266;53.348;-1.496;2023-02-28T03:26:31;9.93;;;5.53;;
73919;SDS011;62266;53.348;-1.496;2023-02-28T03:32:07;9.82;;;5.75;;
73919;SDS011;62266;53.348;-1.496;2023-02-28T03:34:41;9.60;;;5.30;;
73919;SDS011;62266;53.348;-1.496;2023-02-28T03:37:09;9.10;;;5.10;;
73919;SDS011;62266;53.348;-1.496;2023-02-28T03:39:39;7.78;;;4.53;;
73919;SDS011;62266;53.348;-1.496;2023-02-28T03:44:50;6.47;;;4.18;;
73919;SDS011;62266;53.348;-1.496;2023-02-28T03:47:21;8.18;;;4.38;;
73919;SDS011;62266;53.348;-1.496;2023-02-28T03:49:57;7.57;;;4.20;;
73919;SDS011;62266;53.348;-1.496;2023-02-28T03:52:27;5.95;;;3.63;;
73919;SDS011;62266;53.348;-1.496;2023-02-28T03:54:57;6.18;;;3.70;;
73919;SDS011;62266;53.348;-1.496;2023-02-28T04:00:04;6.93;;;3.53;;
73919;SDS011;62266;53.348;-1.496;2023-02-28T04:02:33;4.87;;;3.07;;
73919;SDS011;62266;53.348;-1.496;2023-02-28T04:04:59;4.93;;;3.10;;
73919;SDS011;62266;53.348;-1.496;2023-02-28T04:07:28;5.07;;;3.20;;
73919;SDS011;62266;53.348;-1.496;2023-02-28T04:09:55;5.20;;;3.00;;
73919;SDS011;62266;53.348;-1.496;2023-02-28T04:12:20;6.57;;;3.43;;
73919;SDS011;62266;53.348;-1.496;2023-02-28T04:14:48;6.03;;;3.38;;
73919;SDS011;62266;53.348;-1.496;2023-02-28T04:17:14;6.90;;;4.22;;
73919;SDS011;62266;53.348;-1.496;2023-02-28T04:19:40;8.30;;;4.40;;
73919;SDS011;62266;53.348;-1.496;2023-02-28T04:22:05;10.02;;;5.20;;
73919;SDS011;62266;53.348;-1.496;2023-02-28T04:24:31;13.00;;;6.40;;
73919;SDS011;62266;53.348;-1.496;2023-02-28T04:26:57;12.07;;;6.57;;
73919;SDS011;62266;53.348;-1.496;2023-02-28T04:29:24;13.30;;;6.50;;
73919;SDS011;62266;53.348;-1.496;2023-02-28T04:31:52;14.52;;;7.85;;
73919;SDS011;62266;53.348;-1.496;2023-02-28T04:34:18;18.63;;;7.78;;
73919;SDS011;62266;53.348;-1.496;2023-02-28T04:36:46;14.15;;;7.35;;
73919;SDS011;62266;53.348;-1.496;2023-02-28T04:39:14;16.73;;;7.83;;
73919;SDS011;62266;53.348;-1.496;2023-02-28T04:41:40;14.98;;;8.07;;
73919;SDS011;62266;53.348;-1.496;2023-02-28T04:44:06;17.92;;;8.43;;
73919;SDS011;62266;53.348;-1.496;2023-02-28T04:46:31;17.67;;;8.30;;
73919;SDS011;62266;53.348;-1.496;2023-02-28T04:48:57;15.02;;;7.63;;
73919;SDS011;62266;53.348;-1.496;2023-02-28T04:51:24;14.35;;;7.60;;
73919;SDS011;62266;53.348;-1.496;2023-02-28T04:53:49;16.50;;;8.07;;
73919;SDS011;62266;53.348;-1.496;2023-02-28T04:56:16;15.27;;;7.13;;
73919;SDS011;62266;53.348;-1.496;2023-02-28T04:58:43;15.40;;;8.57;;
73919;SDS011;62266;53.348;-1.496;2023-02-28T05:01:20;10.98;;;5.70;;
73919;SDS011;62266;53.348;-1.496;2023-02-28T05:03:48;11.60;;;6.25;;
73919;SDS011;62266;53.348;-1.496;2023-02-28T05:06:14;12.80;;;5.93;;
73919;SDS011;62266;53.348;-1.496;2023-02-28T05:08:40;12.93;;;6.33;;
73919;SDS011;62266;53.348;-1.496;2023-02-28T05:11:07;10.82;;;5.80;;
73919;SDS011;62266;53.348;-1.496;2023-02-28T05:13:37;11.88;;;5.95;;
73919;SDS011;62266;53.348;-1.496;2023-02-28T05:16:03;10.80;;;5.33;;
73919;SDS011;62266;53.348;-1.496;2023-02-28T05:18:28;13.85;;;6.75;;
73919;SDS011;62266;53.348;-1.496;2023-02-28T05:20:54;11.20;;;5.60;;
73919;SDS011;62266;53.348;-1.496;2023-02-28T05:23:20;11.98;;;6.10;;
73919;SDS011;62266;53.348;-1.496;2023-02-28T05:25:47;13.60;;;6.30;;
73919;SDS011;62266;53.348;-1.496;2023-02-28T05:28:13;13.93;;;5.87;;
73919;SDS011;62266;53.348;-1.496;2023-02-28T05:30:39;13.07;;;6.22;;
73919;SDS011;62266;53.348;-1.496;2023-02-28T05:33:05;13.07;;;5.97;;
73919;SDS011;62266;53.348;-1.496;2023-02-28T05:35:30;12.50;;;5.85;;
73919;SDS011;62266;53.348;-1.496;2023-02-28T05:37:56;12.75;;;5.68;;
73919;SDS011;62266;53.348;-1.496;2023-02-28T05:40:22;11.40;;;5.87;;
73919;SDS011;62266;53.348;-1.496;2023-02-28T05:42:48;13.20;;;6.07;;
73919;SDS011;62266;53.348;-1.496;2023-02-28T05:45:15;12.60;;;5.70;;
73919;SDS011;62266;53.348;-1.496;2023-02-28T05:47:42;14.23;;;5.70;;
73919;SDS011;62266;53.348;-1.496;2023-02-28T05:50:08;11.07;;;5.80;;
73919;SDS011;62266;53.348;-1.496;2023-02-28T05:52:35;11.37;;;5.13;;
73919;SDS011;62266;53.348;-1.496;2023-02-28T05:55:01;10.40;;;5.13;;
73919;SDS011;62266;53.348;-1.496;2023-02-28T05:57:27;13.57;;;5.28;;
73919;SDS011;62266;53.348;-1.496;2023-02-28T05:59:52;10.77;;;4.97;;
73919;SDS011;62266;53.348;-1.496;2023-02-28T06:02:18;10.50;;;5.27;;
73919;SDS011;62266;53.348;-1.496;2023-02-28T06:04:44;12.32;;;5.40;;
73919;SDS011;62266;53.348;-1.496;2023-02-28T06:07:10;11.30;;;5.18;;
73919;SDS011;62266;53.348;-1.496;2023-02-28T06:09:36;11.57;;;5.03;;
73919;SDS011;62266;53.348;-1.496;2023-02-28T06:12:02;10.70;;;5.00;;
73919;SDS011;62266;53.348;-1.496;2023-02-28T06:14:30;12.77;;;5.28;;
73919;SDS011;62266;53.348;-1.496;2023-02-28T06:16:57;10.27;;;4.93;;
73919;SDS011;62266;53.348;-1.496;2023-02-28T06:19:24;13.55;;;5.22;;
73919;SDS011;62266;53.348;-1.496;2023-02-28T06:21:52;12.57;;;5.00;;
73919;SDS011;62266;53.348;-1.496;2023-02-28T06:24:19;13.90;;;5.40;;
73919;SDS011;62266;53.348;-1.496;2023-02-28T06:26:45;12.23;;;4.85;;
73919;SDS011;62266;53.348;-1.496;2023-02-28T06:29:11;11.27;;;5.20;;
73919;SDS011;62266;53.348;-1.496;2023-02-28T06:31:37;12.60;;;5.10;;
73919;SDS011;62266;53.348;-1.496;2023-02-28T06:34:03;11.57;;;5.00;;
73919;SDS011;62266;53.348;-1.496;2023-02-28T06:36:29;11.48;;;4.72;;
73919;SDS011;62266;53.348;-1.496;2023-02-28T06:38:55;11.18;;;4.70;;
73919;SDS011;62266;53.348;-1.496;2023-02-28T06:41:22;10.73;;;5.17;;
73919;SDS011;62266;53.348;-1.496;2023-02-28T06:43:49;13.35;;;5.28;;
73919;SDS011;62266;53.348;-1.496;2023-02-28T06:46:14;11.57;;;4.80;;
73919;SDS011;62266;53.348;-1.496;2023-02-28T06:48:40;10.73;;;4.40;;
73919;SDS011;62266;53.348;-1.496;2023-02-28T06:51:09;12.52;;;5.00;;
73919;SDS011;62266;53.348;-1.496;2023-02-28T06:53:47;12.23;;;4.63;;
73919;SDS011;62266;53.348;-1.496;2023-02-28T06:56:14;12.63;;;5.20;;
73919;SDS011;62266;53.348;-1.496;2023-02-28T06:58:40;12.77;;;4.70;;
73919;SDS011;62266;53.348;-1.496;2023-02-28T07:01:07;11.68;;;5.68;;
73919;SDS011;62266;53.348;-1.496;2023-02-28T07:03:34;12.07;;;4.50;;
73919;SDS011;62266;53.348;-1.496;2023-02-28T07:06:00;12.95;;;4.90;;
73919;SDS011;62266;53.348;-1.496;2023-02-28T07:08:27;13.15;;;5.47;;
73919;SDS011;62266;53.348;-1.496;2023-02-28T07:10:55;11.95;;;5.55;;
73919;SDS011;62266;53.348;-1.496;2023-02-28T07:13:21;12.65;;;5.25;;
73919;SDS011;62266;53.348;-1.496;2023-02-28T07:15:58;13.20;;;5.40;;
73919;SDS011;62266;53.348;-1.496;2023-02-28T07:18:25;13.77;;;5.05;;
73919;SDS011;62266;53.348;-1.496;2023-02-28T07:20:52;10.73;;;4.82;;
73919;SDS011;62266;53.348;-1.496;2023-02-28T07:23:17;10.95;;;4.55;;
73919;SDS011;62266;53.348;-1.496;2023-02-28T07:25:43;10.13;;;4.77;;
73919;SDS011;62266;53.348;-1.496;2023-02-28T07:28:09;10.23;;;4.13;;
73919;SDS011;62266;53.348;-1.496;2023-02-28T07:30:34;10.90;;;4.37;;
73919;SDS011;62266;53.348;-1.496;2023-02-28T07:33:00;8.30;;;4.22;;
73919;SDS011;62266;53.348;-1.496;2023-02-28T07:35:26;8.47;;;3.70;;
73919;SDS011;62266;53.348;-1.496;2023-02-28T07:37:51;9.30;;;3.80;;
73919;SDS011;62266;53.348;-1.496;2023-02-28T07:40:17;10.23;;;4.07;;
73919;SDS011;62266;53.348;-1.496;2023-02-28T07:42:43;10.20;;;4.47;;
73919;SDS011;62266;53.348;-1.496;2023-02-28T07:45:10;10.00;;;4.32;;
73919;SDS011;62266;53.348;-1.496;2023-02-28T07:47:39;8.10;;;3.55;;
73919;SDS011;62266;53.348;-1.496;2023-02-28T07:50:07;10.20;;;4.00;;
73919;SDS011;62266;53.348;-1.496;2023-02-28T07:52:34;7.32;;;3.47;;
73919;SDS011;62266;53.348;-1.496;2023-02-28T07:54:59;7.57;;;3.60;;
73919;SDS011;62266;53.348;-1.496;2023-02-28T07:57:25;7.53;;;3.40;;
73919;SDS011;62266;53.348;-1.496;2023-02-28T07:59:50;7.53;;;3.70;;
73919;SDS011;62266;53.348;-1.496;2023-02-28T08:02:16;6.97;;;3.20;;
73919;SDS011;62266;53.348;-1.496;2023-02-28T08:04:43;7.57;;;3.00;;
73919;SDS011;62266;53.348;-1.496;2023-02-28T08:07:09;5.37;;;2.50;;
73919;SDS011;62266;53.348;-1.496;2023-02-28T08:09:38;6.47;;;2.95;;
73919;SDS011;62266;53.348;-1.496;2023-02-28T08:12:05;5.53;;;2.95;;
73919;SDS011;62266;53.348;-1.496;2023-02-28T08:14:31;7.22;;;3.10;;
73919;SDS011;62266;53.348;-1.496;2023-02-28T08:16:57;5.47;;;3.20;;
73919;SDS011;62266;53.348;-1.496;2023-02-28T08:19:22;8.03;;;3.00;;
73919;SDS011;62266;53.348;-1.496;2023-02-28T08:21:48;8.27;;;3.42;;
73919;SDS011;62266;53.348;-1.496;2023-02-28T08:24:13;8.03;;;2.87;;
73919;SDS011;62266;53.348;-1.496;2023-02-28T08:26:39;6.45;;;2.90;;
73919;SDS011;62266;53.348;-1.496;2023-02-28T08:29:05;6.73;;;3.13;;
73919;SDS011;62266;53.348;-1.496;2023-02-28T08:31:30;7.83;;;3.30;;
73919;SDS011;62266;53.348;-1.496;2023-02-28T08:33:56;10.68;;;4.30;;
73919;SDS011;62266;53.348;-1.496;2023-02-28T08:36:24;7.05;;;3.50;;
73919;SDS011;62266;53.348;-1.496;2023-02-28T08:38:50;8.30;;;3.90;;
73919;SDS011;62266;53.348;-1.496;2023-02-28T08:41:16;6.35;;;3.45;;
73919;SDS011;62266;53.348;-1.496;2023-02-28T08:43:44;7.88;;;3.85;;
73919;SDS011;62266;53.348;-1.496;2023-02-28T08:46:13;8.67;;;4.20;;
73919;SDS011;62266;53.348;-1.496;2023-02-28T08:48:39;6.43;;;3.50;;
73919;SDS011;62266;53.348;-1.496;2023-02-28T08:51:06;6.40;;;4.10;;
73919;SDS011;62266;53.348;-1.496;2023-02-28T08:53:34;10.35;;;4.40;;
73919;SDS011;62266;53.348;-1.496;2023-02-28T08:56:02;6.53;;;3.77;;
73919;SDS011;62266;53.348;-1.496;2023-02-28T08:58:29;8.10;;;4.05;;
73919;SDS011;62266;53.348;-1.496;2023-02-28T09:00:55;10.07;;;4.50;;
73919;SDS011;62266;53.348;-1.496;2023-02-28T09:03:21;6.33;;;4.37;;
73919;SDS011;62266;53.348;-1.496;2023-02-28T09:05:54;7.05;;;3.90;;
73919;SDS011;62266;53.348;-1.496;2023-02-28T09:08:24;8.68;;;3.72;;
73919;SDS011;62266;53.348;-1.496;2023-02-28T09:10:50;7.20;;;3.45;;
73919;SDS011;62266;53.348;-1.496;2023-02-28T09:13:16;5.67;;;3.00;;
73919;SDS011;62266;53.348;-1.496;2023-02-28T09:15:42;7.43;;;3.40;;
73919;SDS011;62266;53.348;-1.496;2023-02-28T09:18:07;5.33;;;2.97;;
73919;SDS011;62266;53.348;-1.496;2023-02-28T09:20:33;6.28;;;3.00;;
73919;SDS011;62266;53.348;-1.496;2023-02-28T09:22:59;5.27;;;3.10;;
73919;SDS011;62266;53.348;-1.496;2023-02-28T09:25:24;5.95;;;2.95;;
73919;SDS011;62266;53.348;-1.496;2023-02-28T09:27:50;6.20;;;3.23;;
73919;SDS011;62266;53.348;-1.496;2023-02-28T09:30:15;6.55;;;3.10;;
73919;SDS011;62266;53.348;-1.496;2023-02-28T09:32:41;8.37;;;3.83;;
73919;SDS011;62266;53.348;-1.496;2023-02-28T09:35:07;5.82;;;2.85;;
73919;SDS011;62266;53.348;-1.496;2023-02-28T09:37:38;5.22;;;2.95;;
73919;SDS011;62266;53.348;-1.496;2023-02-28T09:40:04;3.73;;;2.80;;
73919;SDS011;62266;53.348;-1.496;2023-02-28T09:42:31;4.50;;;2.70;;
73919;SDS011;62266;53.348;-1.496;2023-02-28T09:45:00;5.55;;;2.40;;
73919;SDS011;62266;53.348;-1.496;2023-02-28T09:50:03;4.27;;;2.83;;
73919;SDS011;62266;53.348;-1.496;2023-02-28T09:52:34;5.13;;;2.20;;
73919;SDS011;62266;53.348;-1.496;2023-02-28T09:55:11;5.35;;;2.58;;
73919;SDS011;62266;53.348;-1.496;2023-02-28T09:57:44;6.95;;;2.72;;
73919;SDS011;62266;53.348;-1.496;2023-02-28T10:00:15;7.83;;;3.17;;
73919;SDS011;62266;53.348;-1.496;2023-02-28T10:05:50;6.15;;;2.90;;
73919;SDS011;62266;53.348;-1.496;2023-02-28T10:08:29;4.22;;;2.80;;
73919;SDS011;62266;53.348;-1.496;2023-02-28T10:11:02;7.90;;;2.83;;
73919;SDS011;62266;53.348;-1.496;2023-02-28T10:13:46;6.60;;;2.70;;
73919;SDS011;62266;53.348;-1.496;2023-02-28T10:16:27;4.57;;;2.53;;
73919;SDS011;62266;53.348;-1.496;2023-02-28T10:19:44;6.00;;;3.28;;
73919;SDS011;62266;53.348;-1.496;2023-02-28T10:22:15;3.83;;;2.30;;
73919;SDS011;62266;53.348;-1.496;2023-02-28T10:24:44;5.13;;;2.80;;
73919;SDS011;62266;53.348;-1.496;2023-02-28T10:27:13;4.43;;;2.78;;
73919;SDS011;62266;53.348;-1.496;2023-02-28T10:29:51;5.20;;;2.57;;
73919;SDS011;62266;53.348;-1.496;2023-02-28T10:32:36;3.28;;;2.63;;
73919;SDS011;62266;53.348;-1.496;2023-02-28T10:37:40;5.22;;;2.45;;
73919;SDS011;62266;53.348;-1.496;2023-02-28T10:40:25;6.68;;;2.50;;
73919;SDS011;62266;53.348;-1.496;2023-02-28T10:43:00;3.90;;;2.40;;
73919;SDS011;62266;53.348;-1.496;2023-02-28T10:45:29;3.10;;;2.30;;
73919;SDS011;62266;53.348;-1.496;2023-02-28T10:48:01;2.65;;;1.95;;
73919;SDS011;62266;53.348;-1.496;2023-02-28T10:56:36;3.17;;;2.53;;
73919;SDS011;62266;53.348;-1.496;2023-02-28T11:04:19;3.72;;;2.50;;
73919;SDS011;62266;53.348;-1.496;2023-02-28T11:06:58;3.20;;;2.33;;
73919;SDS011;62266;53.348;-1.496;2023-02-28T11:12:07;3.90;;;2.97;;
73919;SDS011;62266;53.348;-1.496;2023-02-28T11:14:47;5.68;;;3.25;;
73919;SDS011;62266;53.348;-1.496;2023-02-28T11:17:22;4.65;;;3.10;;
73919;SDS011;62266;53.348;-1.496;2023-02-28T11:19:50;4.43;;;2.72;;
73919;SDS011;62266;53.348;-1.496;2023-02-28T11:22:19;3.80;;;2.80;;
73919;SDS011;62266;53.348;-1.496;2023-02-28T11:24:47;4.70;;;2.72;;
73919;SDS011;62266;53.348;-1.496;2023-02-28T11:29:57;3.40;;;2.17;;
73919;SDS011;62266;53.348;-1.496;2023-02-28T11:32:27;2.50;;;2.10;;
73919;SDS011;62266;53.348;-1.496;2023-02-28T11:35:03;3.33;;;2.00;;
73919;SDS011;62266;53.348;-1.496;2023-02-28T11:37:35;3.42;;;1.95;;
73919;SDS011;62266;53.348;-1.496;2023-02-28T11:40:01;4.70;;;1.98;;
73919;SDS011;62266;53.348;-1.496;2023-02-28T11:48:03;3.20;;;1.60;;
73919;SDS011;62266;53.348;-1.496;2023-02-28T11:50:45;2.20;;;1.85;;
73919;SDS011;62266;53.348;-1.496;2023-02-28T11:53:50;3.15;;;1.50;;
73919;SDS011;62266;53.348;-1.496;2023-02-28T11:56:47;1.88;;;1.40;;
73919;SDS011;62266;53.348;-1.496;2023-02-28T12:08:15;3.55;;;1.70;;
73919;SDS011;62266;53.348;-1.496;2023-02-28T12:13:39;3.87;;;1.60;;
73919;SDS011;62266;53.348;-1.496;2023-02-28T12:16:42;2.70;;;1.75;;
73919;SDS011;62266;53.348;-1.496;2023-02-28T12:19:25;3.05;;;1.73;;
73919;SDS011;62266;53.348;-1.496;2023-02-28T12:27:19;4.47;;;1.90;;
73919;SDS011;62266;53.348;-1.496;2023-02-28T12:32:39;2.75;;;1.40;;
73919;SDS011;62266;53.348;-1.496;2023-02-28T12:37:43;2.73;;;1.60;;
73919;SDS011;62266;53.348;-1.496;2023-02-28T12:40:13;1.90;;;1.25;;
73919;SDS011;62266;53.348;-1.496;2023-02-28T12:48:10;2.00;;;1.23;;
73919;SDS011;62266;53.348;-1.496;2023-02-28T12:50:40;6.30;;;1.10;;
73919;SDS011;62266;53.348;-1.496;2023-02-28T12:53:06;2.33;;;1.10;;
73919;SDS011;62266;53.348;-1.496;2023-02-28T12:55:49;1.17;;;1.02;;
73919;SDS011;62266;53.348;-1.496;2023-02-28T13:09:24;3.03;;;1.27;;
73919;SDS011;62266;53.348;-1.496;2023-02-28T13:11:54;2.88;;;1.30;;
73919;SDS011;62266;53.348;-1.496;2023-02-28T13:14:25;2.03;;;1.30;;
73919;SDS011;62266;53.348;-1.496;2023-02-28T13:17:03;2.43;;;1.57;;
73919;SDS011;62266;53.348;-1.496;2023-02-28T13:19:41;1.67;;;1.27;;
73919;SDS011;62266;53.348;-1.496;2023-02-28T13:22:19;2.88;;;1.50;;
73919;SDS011;62266;53.348;-1.496;2023-02-28T13:29:40;2.20;;;1.67;;
73919;SDS011;62266;53.348;-1.496;2023-02-28T13:34:41;2.65;;;1.48;;
73919;SDS011;62266;53.348;-1.496;2023-02-28T13:39:52;2.22;;;1.60;;
73919;SDS011;62266;53.348;-1.496;2023-02-28T13:55:49;3.07;;;1.37;;
73919;SDS011;62266;53.348;-1.496;2023-02-28T13:58:35;1.50;;;1.17;;
73919;SDS011;62266;53.348;-1.496;2023-02-28T14:04:14;2.72;;;1.13;;
73919;SDS011;62266;53.348;-1.496;2023-02-28T14:06:47;0.93;;;0.82;;
73919;SDS011;62266;53.348;-1.496;2023-02-28T14:11:49;1.90;;;1.40;;
73919;SDS011;62266;53.348;-1.496;2023-02-28T14:16:59;2.17;;;1.65;;
73919;SDS011;62266;53.348;-1.496;2023-02-28T14:19:26;3.17;;;1.70;;
73919;SDS011;62266;53.348;-1.496;2023-02-28T14:24:51;3.22;;;2.10;;
73919;SDS011;62266;53.348;-1.496;2023-02-28T14:38:49;2.63;;;1.95;;
73919;SDS011;62266;53.348;-1.496;2023-02-28T14:41:40;3.65;;;2.00;;
73919;SDS011;62266;53.348;-1.496;2023-02-28T14:46:54;5.32;;;2.40;;
73919;SDS011;62266;53.348;-1.496;2023-02-28T14:49:25;3.27;;;2.43;;
73919;SDS011;62266;53.348;-1.496;2023-02-28T14:54:31;5.82;;;3.60;;
73919;SDS011;62266;53.348;-1.496;2023-02-28T14:56:57;5.50;;;3.50;;
73919;SDS011;62266;53.348;-1.496;2023-02-28T14:59:25;3.63;;;2.50;;
73919;SDS011;62266;53.348;-1.496;2023-02-28T15:02:13;4.93;;;2.15;;
73919;SDS011;62266;53.348;-1.496;2023-02-28T15:04:41;4.97;;;2.50;;
73919;SDS011;62266;53.348;-1.496;2023-02-28T15:07:08;5.13;;;2.60;;
73919;SDS011;62266;53.348;-1.496;2023-02-28T15:09:39;5.95;;;2.15;;
73919;SDS011;62266;53.348;-1.496;2023-02-28T15:12:06;4.95;;;1.80;;
73919;SDS011;62266;53.348;-1.496;2023-02-28T15:14:42;4.47;;;2.00;;
73919;SDS011;62266;53.348;-1.496;2023-02-28T15:17:11;2.40;;;1.45;;
73919;SDS011;62266;53.348;-1.496;2023-02-28T15:19:44;3.15;;;1.40;;
73919;SDS011;62266;53.348;-1.496;2023-02-28T15:22:15;4.33;;;1.67;;
73919;SDS011;62266;53.348;-1.496;2023-02-28T15:24:44;4.28;;;1.30;;
73919;SDS011;62266;53.348;-1.496;2023-02-28T15:27:22;3.60;;;1.75;;
73919;SDS011;62266;53.348;-1.496;2023-02-28T15:32:38;3.22;;;1.70;;
73919;SDS011;62266;53.348;-1.496;2023-02-28T15:37:56;4.90;;;2.05;;
73919;SDS011;62266;53.348;-1.496;2023-02-28T15:40:38;5.47;;;1.70;;
73919;SDS011;62266;53.348;-1.496;2023-02-28T15:43:17;2.58;;;1.73;;
73919;SDS011;62266;53.348;-1.496;2023-02-28T15:46:04;4.75;;;1.60;;
73919;SDS011;62266;53.348;-1.496;2023-02-28T15:51:20;1.95;;;0.88;;
73919;SDS011;62266;53.348;-1.496;2023-02-28T15:53:58;2.13;;;1.30;;
73919;SDS011;62266;53.348;-1.496;2023-02-28T15:56:29;3.08;;;1.10;;
73919;SDS011;62266;53.348;-1.496;2023-02-28T15:58:57;2.88;;;1.52;;
73919;SDS011;62266;53.348;-1.496;2023-02-28T16:01:26;2.83;;;1.10;;
73919;SDS011;62266;53.348;-1.496;2023-02-28T16:03:56;1.95;;;1.00;;
73919;SDS011;62266;53.348;-1.496;2023-02-28T16:06:38;1.52;;;0.80;;
73919;SDS011;62266;53.348;-1.496;2023-02-28T16:09:14;2.20;;;0.90;;
73919;SDS011;62266;53.348;-1.496;2023-02-28T16:11:42;1.75;;;0.95;;
73919;SDS011;62266;53.348;-1.496;2023-02-28T16:14:12;1.77;;;1.03;;
73919;SDS011;62266;53.348;-1.496;2023-02-28T16:16:44;0.90;;;0.77;;
73919;SDS011;62266;53.348;-1.496;2023-02-28T16:19:11;2.58;;;1.38;;
73919;SDS011;62266;53.348;-1.496;2023-02-28T16:21:37;2.63;;;1.10;;
73919;SDS011;62266;53.348;-1.496;2023-02-28T16:24:05;3.75;;;1.90;;
73919;SDS011;62266;53.348;-1.496;2023-02-28T16:26:41;1.60;;;1.27;;
73919;SDS011;62266;53.348;-1.496;2023-02-28T16:29:13;2.42;;;1.30;;
73919;SDS011;62266;53.348;-1.496;2023-02-28T16:31:57;2.60;;;1.70;;
73919;SDS011;62266;53.348;-1.496;2023-02-28T16:34:24;2.57;;;1.63;;
73919;SDS011;62266;53.348;-1.496;2023-02-28T16:36:50;2.03;;;1.75;;
73919;SDS011;62266;53.348;-1.496;2023-02-28T16:39:21;2.15;;;1.70;;
73919;SDS011;62266;53.348;-1.496;2023-02-28T16:50:01;2.50;;;1.60;;
73919;SDS011;62266;53.348;-1.496;2023-02-28T16:52:29;2.55;;;1.25;;
73919;SDS011;62266;53.348;-1.496;2023-02-28T16:54:57;3.63;;;1.35;;
73919;SDS011;62266;53.348;-1.496;2023-02-28T16:57:26;3.92;;;2.30;;
73919;SDS011;62266;53.348;-1.496;2023-02-28T16:59:52;3.20;;;1.17;;
73919;SDS011;62266;53.348;-1.496;2023-02-28T17:02:18;2.20;;;1.23;;
73919;SDS011;62266;53.348;-1.496;2023-02-28T17:04:46;3.47;;;1.50;;
73919;SDS011;62266;53.348;-1.496;2023-02-28T17:07:13;5.07;;;2.23;;
73919;SDS011;62266;53.348;-1.496;2023-02-28T17:09:41;4.47;;;2.33;;
73919;SDS011;62266;53.348;-1.496;2023-02-28T17:12:07;3.47;;;2.00;;
73919;SDS011;62266;53.348;-1.496;2023-02-28T17:14:33;3.45;;;2.38;;
73919;SDS011;62266;53.348;-1.496;2023-02-28T17:16:59;5.27;;;2.37;;
73919;SDS011;62266;53.348;-1.496;2023-02-28T17:19:25;2.50;;;2.30;;
73919;SDS011;62266;53.348;-1.496;2023-02-28T17:22:11;6.13;;;2.50;;
73919;SDS011;62266;53.348;-1.496;2023-02-28T17:24:37;3.72;;;2.60;;
73919;SDS011;62266;53.348;-1.496;2023-02-28T17:27:05;2.87;;;2.07;;
73919;SDS011;62266;53.348;-1.496;2023-02-28T17:29:33;3.58;;;2.03;;
73919;SDS011;62266;53.348;-1.496;2023-02-28T17:31:58;4.20;;;2.77;;
73919;SDS011;62266;53.348;-1.496;2023-02-28T17:34:24;3.70;;;2.80;;
73919;SDS011;62266;53.348;-1.496;2023-02-28T17:36:50;4.55;;;2.88;;
73919;SDS011;62266;53.348;-1.496;2023-02-28T17:39:17;4.30;;;2.90;;
73919;SDS011;62266;53.348;-1.496;2023-02-28T17:41:52;8.10;;;3.50;;
73919;SDS011;62266;53.348;-1.496;2023-02-28T17:44:21;4.07;;;3.13;;
73919;SDS011;62266;53.348;-1.496;2023-02-28T17:46:48;8.32;;;3.80;;